Time;durP1;ratioP1;P1;durP2;ratioP2;P2;SDS_P1;SDS_P2;PMS_P1;PMS_P2;Temp;Humidity;BMP_temperature;BMP_pressure;BME280_temperature;BME280_humidity;BME280_pressure;Samples;Min_cycle;Max_cycle;Signal;HPM_P1;HPM_P2
2022/09/02 00:01:40;;;;;;;;;;;19.90;99.90;;;;;;5070793;28;19909;-83
2022/09/02 00:04:16;;;;;;;;;;;19.90;99.90;;;;;;5072773;28;20451;-83
2022/09/02 00:06:42;;;;;;;;;;;19.90;99.90;;;;;;5072594;28;20363;-83
2022/09/02 00:09:09;;;;;;;;;;;19.80;99.90;;;;;;5072767;28;19908;-83
2022/09/02 00:11:35;;;;;;;;;;;19.80;99.90;;;;;;5071350;28;19954;-84
2022/09/02 00:14:02;;;;;;;;;;;19.80;99.90;;;;;;5071480;28;19912;-83
2022/09/02 00:16:30;;;;;;;;;;;19.80;99.90;;;;;;5072446;28;19940;-83
2022/09/02 00:18:56;;;;;;;;;;;19.80;99.90;;;;;;5071290;28;20325;-83
2022/09/02 00:21:23;;;;;;;;;;;19.80;99.90;;;;;;5071547;28;19915;-83
2022/09/02 00:23:49;;;;;;;;;;;19.80;99.90;;;;;;5071194;28;19955;-83
2022/09/02 00:26:14;;;;;;;;;;;19.70;99.90;;;;;;5071073;28;19909;-84
2022/09/02 00:28:40;;;;;;;;;;;19.70;99.90;;;;;;5071230;28;19912;-83
2022/09/02 00:31:06;;;;;;;;;;;19.70;99.90;;;;;;5071335;28;19908;-84
2022/09/02 00:33:31;;;;;;;;;;;19.60;99.90;;;;;;5072330;28;19908;-83
2022/09/02 00:35:58;;;;;;;;;;;19.60;99.90;;;;;;5072493;28;20057;-83
2022/09/02 00:38:24;;;;;;;;;;;19.60;99.90;;;;;;5072371;28;20264;-83
2022/09/02 00:40:50;;;;;;;;;;;19.60;99.90;;;;;;5072329;28;19920;-83
2022/09/02 00:43:36;;;;;;;;;;;19.60;99.90;;;;;;5071055;28;19913;-84
2022/09/02 00:46:01;;;;;;;;;;;19.60;99.90;;;;;;5072137;28;19912;-82
2022/09/02 00:48:27;;;;;;;;;;;19.50;99.90;;;;;;5071116;28;19916;-83
2022/09/02 00:50:52;;;;;;;;;;;19.50;99.90;;;;;;5072265;28;19915;-83
2022/09/02 00:53:19;;;;;;;;;;;19.50;99.90;;;;;;5070945;28;19909;-83
2022/09/02 00:55:46;;;;;;;;;;;19.50;99.90;;;;;;5072007;28;20024;-83
2022/09/02 00:58:20;;;;;;;;;;;19.40;99.90;;;;;;5072200;28;20017;-82
2022/09/02 01:00:46;;;;;;;;;;;19.50;99.90;;;;;;5072124;28;20371;-83
2022/09/02 01:03:14;;;;;;;;;;;19.40;99.90;;;;;;5070786;28;19917;-83
2022/09/02 01:05:44;;;;;;;;;;;19.40;99.90;;;;;;5070852;28;19912;-84
2022/09/02 01:08:14;;;;;;;;;;;19.30;99.90;;;;;;5070812;28;20008;-83
2022/09/02 01:10:41;;;;;;;;;;;19.40;99.90;;;;;;5070788;28;20372;-83
2022/09/02 01:13:08;;;;;;;;;;;19.30;99.90;;;;;;5074760;28;19916;-83
2022/09/02 01:15:37;;;;;;;;;;;19.30;99.90;;;;;;5074578;28;19995;-83
2022/09/02 01:18:04;;;;;;;;;;;19.30;99.90;;;;;;5075985;28;19983;-84
2022/09/02 01:20:30;;;;;;;;;;;19.30;99.90;;;;;;5071178;28;19917;-84
2022/09/02 01:22:57;;;;;;;;;;;19.20;99.90;;;;;;5061324;28;19935;-84
2022/09/02 01:25:24;;;;;;;;;;;19.20;99.90;;;;;;5074460;28;19965;-84
2022/09/02 01:27:50;;;;;;;;;;;19.20;99.90;;;;;;5074337;28;19938;-83
2022/09/02 01:30:18;;;;;;;;;;;19.20;99.90;;;;;;5074448;28;20388;-83
2022/09/02 01:32:43;;;;;;;;;;;19.10;99.90;;;;;;5074342;28;20367;-83
2022/09/02 01:35:09;;;;;;;;;;;19.10;99.90;;;;;;5074270;28;19931;-83
2022/09/02 01:37:37;;;;;;;;;;;19.10;99.90;;;;;;5074149;28;19915;-83
2022/09/02 01:40:03;;;;;;;;;;;19.10;99.90;;;;;;5074319;28;20400;-83
2022/09/02 01:42:29;;;;;;;;;;;19.00;99.90;;;;;;5075279;28;20003;-84
2022/09/02 01:44:54;;;;;;;;;;;19.00;99.90;;;;;;5074226;28;19909;-83
2022/09/02 01:47:22;;;;;;;;;;;19.00;99.90;;;;;;5073894;28;19909;-83
2022/09/02 01:49:47;;;;;;;;;;;18.90;99.90;;;;;;5075395;28;20288;-83
2022/09/02 01:52:13;;;;;;;;;;;18.90;99.90;;;;;;5074004;28;19915;-83
2022/09/02 01:54:39;;;;;;;;;;;18.90;99.90;;;;;;5074006;28;19912;-83
2022/09/02 01:57:04;;;;;;;;;;;18.80;99.90;;;;;;5075101;28;19915;-85
2022/09/02 01:59:30;;;;;;;;;;;18.90;99.90;;;;;;5075450;28;19955;-83
2022/09/02 02:01:55;;;;;;;;;;;18.80;99.90;;;;;;5075090;28;20022;-83
2022/09/02 02:04:23;;;;;;;;;;;18.80;99.90;;;;;;5073779;28;20016;-83
2022/09/02 02:06:49;;;;;;;;;;;18.80;99.90;;;;;;5073594;28;20328;-82
2022/09/02 02:09:17;;;;;;;;;;;18.80;99.90;;;;;;5075118;28;19958;-83
2022/09/02 02:11:43;;;;;;;;;;;18.80;99.90;;;;;;5073513;28;19912;-82
2022/09/02 02:14:09;;;;;;;;;;;18.80;99.90;;;;;;5073704;28;20105;-82
2022/09/02 02:16:34;;;;;;;;;;;18.80;99.90;;;;;;5074611;28;20310;-83
2022/09/02 02:19:00;;;;;;;;;;;18.70;99.90;;;;;;5074816;28;20447;-83
2022/09/02 02:21:26;;;;;;;;;;;18.70;99.90;;;;;;5073467;28;19908;-83
2022/09/02 02:23:52;;;;;;;;;;;18.70;99.90;;;;;;5072518;28;20004;-83
2022/09/02 02:26:17;;;;;;;;;;;18.70;99.90;;;;;;5074283;28;19908;-83
2022/09/02 02:28:42;;;;;;;;;;;18.60;99.90;;;;;;5074560;28;19913;-83
2022/09/02 02:31:08;;;;;;;;;;;18.60;99.90;;;;;;5074426;28;19999;-82
2022/09/02 02:33:34;;;;;;;;;;;18.60;99.90;;;;;;5073174;28;20011;-83
2022/09/02 02:36:00;;;;;;;;;;;18.60;99.90;;;;;;5072960;28;19916;-83
2022/09/02 02:38:25;;;;;;;;;;;18.50;99.90;;;;;;5074510;28;19955;-83
2022/09/02 02:40:56;;;;;;;;;;;18.50;99.90;;;;;;5074461;28;19908;-82
2022/09/02 02:43:22;;;;;;;;;;;18.50;99.90;;;;;;5072923;28;19913;-83
2022/09/02 02:45:48;;;;;;;;;;;18.50;99.90;;;;;;5074094;28;20290;-83
2022/09/02 02:48:13;;;;;;;;;;;18.50;99.90;;;;;;5074283;28;20023;-83
2022/09/02 02:50:39;;;;;;;;;;;18.50;99.90;;;;;;5072949;28;20000;-83
2022/09/02 02:53:04;;;;;;;;;;;18.50;99.90;;;;;;5073046;28;20003;-83
2022/09/02 02:55:30;;;;;;;;;;;18.50;99.90;;;;;;5073995;28;19987;-82
2022/09/02 02:57:55;;;;;;;;;;;18.40;99.90;;;;;;5072668;28;19908;-83
2022/09/02 03:00:22;;;;;;;;;;;18.40;99.90;;;;;;5072773;28;19965;-83
2022/09/02 03:02:48;;;;;;;;;;;18.40;99.90;;;;;;5072556;28;19920;-83
2022/09/02 03:05:14;;;;;;;;;;;18.40;99.90;;;;;;5073896;28;19909;-83
2022/09/02 03:07:39;;;;;;;;;;;18.40;99.90;;;;;;5073665;28;19913;-83
2022/09/02 03:10:07;;;;;;;;;;;18.40;99.90;;;;;;5073795;28;19992;-83
2022/09/02 03:12:33;;;;;;;;;;;18.40;99.90;;;;;;5072304;28;20011;-82
2022/09/02 03:14:58;;;;;;;;;;;18.40;99.90;;;;;;5073657;28;19915;-83
2022/09/02 03:17:24;;;;;;;;;;;18.30;99.90;;;;;;5072202;28;19908;-82
2022/09/02 03:19:49;;;;;;;;;;;18.30;99.90;;;;;;5073710;28;20395;-83
2022/09/02 03:22:15;;;;;;;;;;;18.30;99.90;;;;;;5072253;28;19944;-83
2022/09/02 03:24:41;;;;;;;;;;;18.30;99.90;;;;;;5073375;28;19913;-84
2022/09/02 03:27:06;;;;;;;;;;;18.30;99.90;;;;;;5073248;28;20275;-82
2022/09/02 03:29:32;;;;;;;;;;;18.30;99.90;;;;;;5073471;28;19909;-82
2022/09/02 03:31:58;;;;;;;;;;;18.30;99.90;;;;;;5072093;28;20536;-82
2022/09/02 03:34:23;;;;;;;;;;;18.30;99.90;;;;;;5071996;28;19909;-83
2022/09/02 03:36:49;;;;;;;;;;;18.30;99.90;;;;;;5070848;28;20286;-83
2022/09/02 03:39:14;;;;;;;;;;;18.30;99.90;;;;;;5071886;28;19908;-82
2022/09/02 03:41:40;;;;;;;;;;;18.30;99.90;;;;;;5073174;28;19908;-83
2022/09/02 03:44:06;;;;;;;;;;;18.30;99.90;;;;;;5073063;28;19913;-83
2022/09/02 03:46:32;;;;;;;;;;;18.30;99.90;;;;;;5072907;28;19908;-83
2022/09/02 03:48:57;;;;;;;;;;;18.20;99.90;;;;;;5073119;28;19908;-83
2022/09/02 03:51:23;;;;;;;;;;;18.20;99.90;;;;;;5072962;28;19909;-83
2022/09/02 03:53:49;;;;;;;;;;;18.20;99.90;;;;;;5073033;28;19912;-83
2022/09/02 03:56:15;;;;;;;;;;;18.20;99.90;;;;;;5071451;28;19931;-82
2022/09/02 03:58:42;;;;;;;;;;;18.20;99.90;;;;;;5071683;28;20018;-82
2022/09/02 04:01:07;;;;;;;;;;;18.20;99.90;;;;;;5072864;28;19936;-83
2022/09/02 04:03:33;;;;;;;;;;;18.20;99.90;;;;;;5071408;28;19964;-82
2022/09/02 04:05:58;;;;;;;;;;;18.20;99.90;;;;;;5072568;28;19915;-83
2022/09/02 04:08:24;;;;;;;;;;;18.10;99.90;;;;;;5071414;28;19908;-82
2022/09/02 04:10:50;;;;;;;;;;;18.20;99.90;;;;;;5071504;28;20426;-82
2022/09/02 04:13:16;;;;;;;;;;;18.10;99.90;;;;;;5073354;28;19917;-83
2022/09/02 04:15:43;;;;;;;;;;;18.10;99.90;;;;;;5072233;28;19909;-83
2022/09/02 04:18:09;;;;;;;;;;;18.10;99.90;;;;;;5071790;28;19908;-83
2022/09/02 04:20:36;;;;;;;;;;;18.20;99.90;;;;;;5073535;28;20348;-83
2022/09/02 04:23:02;;;;;;;;;;;18.20;99.90;;;;;;5072944;28;19938;-83
2022/09/02 04:25:27;;;;;;;;;;;18.30;99.90;;;;;;5071557;28;19995;-83
2022/09/02 04:27:53;;;;;;;;;;;18.20;99.90;;;;;;5073105;28;20267;-83
2022/09/02 04:30:19;;;;;;;;;;;18.20;99.90;;;;;;5072629;28;19920;-82
2022/09/02 04:32:45;;;;;;;;;;;18.20;99.90;;;;;;5071598;28;19909;-82
2022/09/02 04:35:10;;;;;;;;;;;18.20;99.90;;;;;;5071669;28;20264;-83
2022/09/02 04:37:36;;;;;;;;;;;18.20;99.90;;;;;;5073445;28;19909;-83
2022/09/02 04:40:01;;;;;;;;;;;18.30;99.90;;;;;;5071892;28;19912;-82
2022/09/02 04:42:27;;;;;;;;;;;18.20;99.90;;;;;;5072454;28;19978;-83
2022/09/02 04:44:53;;;;;;;;;;;18.30;99.90;;;;;;5073388;28;19908;-83
2022/09/02 04:47:19;;;;;;;;;;;18.30;99.90;;;;;;5071910;28;19962;-83
2022/09/02 04:49:45;;;;;;;;;;;18.30;99.90;;;;;;5071391;28;19908;-82
2022/09/02 04:52:10;;;;;;;;;;;18.40;99.90;;;;;;5071578;28;19916;-83
2022/09/02 04:54:36;;;;;;;;;;;18.40;99.90;;;;;;5073057;28;19908;-83
2022/09/02 04:57:02;;;;;;;;;;;18.40;99.90;;;;;;5071634;28;19908;-83
2022/09/02 04:59:27;;;;;;;;;;;18.50;99.90;;;;;;5073444;28;20276;-82
2022/09/02 05:01:53;;;;;;;;;;;18.50;99.90;;;;;;5072372;28;19908;-85
2022/09/02 05:04:18;;;;;;;;;;;18.60;99.90;;;;;;5070875;28;19923;-82
2022/09/02 05:06:45;;;;;;;;;;;18.60;99.90;;;;;;5071927;28;19932;-84
2022/09/02 05:09:10;;;;;;;;;;;18.60;99.90;;;;;;5070972;28;20488;-84
2022/09/02 05:11:37;;;;;;;;;;;18.70;99.90;;;;;;5070822;28;19913;-83
2022/09/02 05:14:03;;;;;;;;;;;18.70;99.90;;;;;;5072273;28;19915;-84
2022/09/02 05:16:30;;;;;;;;;;;18.70;99.90;;;;;;5071924;28;19962;-84
2022/09/02 05:18:56;;;;;;;;;;;18.70;99.90;;;;;;5070839;28;19916;-83
2022/09/02 05:21:24;;;;;;;;;;;18.80;99.90;;;;;;5072075;28;20317;-83
2022/09/02 05:23:50;;;;;;;;;;;18.80;99.90;;;;;;5070611;28;19960;-83
2022/09/02 05:26:16;;;;;;;;;;;18.80;99.90;;;;;;5071728;28;19909;-83
2022/09/02 05:28:42;;;;;;;;;;;18.80;99.90;;;;;;5070992;28;20394;-83
2022/09/02 05:31:12;;;;;;;;;;;18.80;99.90;;;;;;5071825;28;19909;-82
2022/09/02 05:33:39;;;;;;;;;;;18.90;99.90;;;;;;5071779;28;19995;-82
2022/09/02 05:36:06;;;;;;;;;;;18.90;99.90;;;;;;5070465;28;19957;-83
2022/09/02 05:38:31;;;;;;;;;;;19.00;99.90;;;;;;5071743;28;19952;-83
2022/09/02 05:40:58;;;;;;;;;;;19.00;99.90;;;;;;5070641;28;20362;-82
2022/09/02 05:43:24;;;;;;;;;;;19.10;99.90;;;;;;5070362;28;20294;-83
2022/09/02 05:45:49;;;;;;;;;;;19.20;99.90;;;;;;5071732;28;19912;-83
2022/09/02 05:51:02;;;;;;;;;;;19.30;99.90;;;;;;5072106;28;19981;-82
2022/09/02 05:53:28;;;;;;;;;;;19.40;99.90;;;;;;5071735;28;19912;-83
2022/09/02 05:55:53;;;;;;;;;;;19.40;99.90;;;;;;5071569;28;20008;-82
2022/09/02 05:58:18;;;;;;;;;;;19.40;99.90;;;;;;5071643;28;19913;-83
2022/09/02 06:00:44;;;;;;;;;;;19.50;99.90;;;;;;5074599;28;19938;-84
2022/09/02 06:03:10;;;;;;;;;;;19.50;99.90;;;;;;5073921;28;20311;-84
2022/09/02 06:05:37;;;;;;;;;;;19.50;99.90;;;;;;5073932;28;19908;-83
2022/09/02 06:08:02;;;;;;;;;;;19.60;99.90;;;;;;5075177;28;19928;-83
2022/09/02 06:10:28;;;;;;;;;;;19.60;99.90;;;;;;5073894;28;20288;-84
2022/09/02 06:12:53;;;;;;;;;;;19.60;99.90;;;;;;5074969;28;20368;-84
2022/09/02 06:15:19;;;;;;;;;;;19.70;99.90;;;;;;5073796;28;19919;-84
2022/09/02 06:17:44;;;;;;;;;;;19.80;99.90;;;;;;5075090;28;19962;-83
2022/09/02 06:20:10;;;;;;;;;;;20.00;99.90;;;;;;5074523;28;19955;-87
2022/09/02 06:22:35;;;;;;;;;;;20.00;99.90;;;;;;5074863;28;19915;-87
2022/09/02 06:25:01;;;;;;;;;;;20.20;99.90;;;;;;5073782;28;20390;-86
2022/09/02 06:27:26;;;;;;;;;;;20.30;99.90;;;;;;5073557;28;19909;-87
2022/09/02 06:29:52;;;;;;;;;;;20.30;99.90;;;;;;5073746;28;20414;-86
2022/09/02 06:32:17;;;;;;;;;;;20.40;99.90;;;;;;5073534;28;19954;-87
2022/09/02 06:34:43;;;;;;;;;;;20.40;99.90;;;;;;5073530;28;19909;-86
2022/09/02 06:37:08;;;;;;;;;;;20.50;99.90;;;;;;5073387;28;20142;-88
2022/09/02 06:39:34;;;;;;;;;;;20.50;99.90;;;;;;5073511;28;19916;-86
2022/09/02 06:42:00;;;;;;;;;;;20.60;99.90;;;;;;5073397;28;19908;-86
2022/09/02 06:44:26;;;;;;;;;;;20.60;99.90;;;;;;5074579;28;19912;-87
2022/09/02 06:46:52;;;;;;;;;;;20.60;99.90;;;;;;5072962;28;19908;-84
2022/09/02 06:49:18;;;;;;;;;;;20.70;99.90;;;;;;5073636;28;20007;-86
2022/09/02 06:51:45;;;;;;;;;;;20.80;99.90;;;;;;5074435;28;19956;-87
2022/09/02 06:54:13;;;;;;;;;;;20.80;99.90;;;;;;5073269;28;19947;-87
2022/09/02 06:56:39;;;;;;;;;;;20.90;99.90;;;;;;5072865;28;19916;-86
2022/09/02 06:59:04;;;;;;;;;;;21.00;99.90;;;;;;5073252;28;19951;-85
2022/09/02 07:01:34;;;;;;;;;;;21.20;99.90;;;;;;5073017;28;19915;-86
2022/09/02 07:06:46;;;;;;;;;;;21.40;99.90;;;;;;5074045;28;20492;-87
2022/09/02 07:09:13;;;;;;;;;;;21.40;99.90;;;;;;5072710;28;19978;-87
2022/09/02 07:11:39;;;;;;;;;;;21.50;99.90;;;;;;5073762;28;19927;-86
2022/09/02 07:14:05;;;;;;;;;;;21.60;99.90;;;;;;5072917;28;20283;-86
2022/09/02 07:16:33;;;;;;;;;;;21.50;99.90;;;;;;5072590;28;20376;-86
2022/09/02 07:19:00;;;;;;;;;;;21.60;99.90;;;;;;5072709;28;19944;-86
2022/09/02 07:21:29;;;;;;;;;;;21.50;99.90;;;;;;5064408;28;19919;-86
2022/09/02 07:24:00;;;;;;;;;;;21.60;99.90;;;;;;5065060;28;19924;-87
2022/09/02 07:26:26;;;;;;;;;;;21.60;99.90;;;;;;5071536;28;19912;-86
2022/09/02 07:28:52;;;;;;;;;;;21.60;99.90;;;;;;5073264;28;19962;-86
2022/09/02 07:31:28;;;;;;;;;;;21.70;99.90;;;;;;5070687;28;19909;-86
2022/09/02 07:34:11;;;;;;;;;;;21.70;99.90;;;;;;5053956;28;19918;-84
2022/09/02 07:36:37;;;;;;;;;;;21.80;99.90;;;;;;5052127;28;19909;-84
2022/09/02 07:39:03;;;;;;;;;;;21.90;99.90;;;;;;5055449;28;19916;-84
2022/09/02 07:41:29;;;;;;;;;;;22.00;99.90;;;;;;5055052;28;19962;-85
2022/09/02 07:43:54;;;;;;;;;;;22.10;99.90;;;;;;5054240;28;19951;-85
2022/09/02 07:46:20;;;;;;;;;;;22.10;99.90;;;;;;5053097;28;19916;-86
2022/09/02 07:48:48;;;;;;;;;;;22.10;99.90;;;;;;5052880;28;20047;-86
2022/09/02 07:51:15;;;;;;;;;;;22.10;99.90;;;;;;5052287;28;19909;-84
2022/09/02 07:53:42;;;;;;;;;;;22.00;99.80;;;;;;5053577;28;20399;-83
2022/09/02 07:56:08;;;;;;;;;;;21.90;99.60;;;;;;5054565;28;20021;-84
2022/09/02 07:58:33;;;;;;;;;;;21.80;99.90;;;;;;5055812;28;19909;-81
2022/09/02 08:00:59;;;;;;;;;;;21.90;99.90;;;;;;5053677;28;19913;-86
2022/09/02 08:03:25;;;;;;;;;;;22.10;99.90;;;;;;5052881;28;19920;-84
2022/09/02 08:05:51;;;;;;;;;;;22.20;99.90;;;;;;5053835;28;19916;-86
2022/09/02 08:08:19;;;;;;;;;;;22.30;99.60;;;;;;5057541;28;19908;-87
2022/09/02 08:10:45;;;;;;;;;;;22.40;99.80;;;;;;5053739;28;19909;-86
2022/09/02 08:13:11;;;;;;;;;;;22.40;99.90;;;;;;5056660;28;19931;-85
2022/09/02 08:15:37;;;;;;;;;;;22.60;99.20;;;;;;5051474;28;19935;-85
2022/09/02 08:18:03;;;;;;;;;;;22.70;99.30;;;;;;5053436;28;19909;-87
2022/09/02 08:20:29;;;;;;;;;;;22.80;99.90;;;;;;5035290;28;19923;-86
2022/09/02 08:22:55;;;;;;;;;;;23.00;98.60;;;;;;5051614;28;19916;-85
2022/09/02 08:25:20;;;;;;;;;;;23.10;98.20;;;;;;5052145;28;19955;-88
2022/09/02 08:27:46;;;;;;;;;;;23.20;98.00;;;;;;5051861;28;19909;-84
2022/09/02 08:30:11;;;;;;;;;;;23.40;98.40;;;;;;5053533;28;19909;-87
2022/09/02 08:32:40;;;;;;;;;;;23.40;97.50;;;;;;5068216;28;19915;-85
2022/09/02 08:35:07;;;;;;;;;;;23.60;96.40;;;;;;5052474;28;20292;-86
2022/09/02 08:37:33;;;;;;;;;;;23.60;98.10;;;;;;5060902;28;19955;-85
2022/09/02 08:39:59;;;;;;;;;;;23.70;96.40;;;;;;5076713;28;20283;-84
2022/09/02 08:42:40;;;;;;;;;;;23.70;97.20;;;;;;5065831;28;19909;-85
2022/09/02 08:45:12;;;;;;;;;;;23.90;97.80;;;;;;5068268;28;20276;-84
2022/09/02 08:47:42;;;;;;;;;;;24.10;96.90;;;;;;5075830;28;19931;-85
2022/09/02 08:50:13;;;;;;;;;;;24.20;96.10;;;;;;5074679;28;19915;-85
2022/09/02 08:52:57;;;;;;;;;;;24.30;95.70;;;;;;5072769;28;19913;-82
2022/09/02 08:55:25;;;;;;;;;;;25.00;95.40;;;;;;5071629;28;19958;-83
2022/09/02 08:57:51;;;;;;;;;;;26.60;92.00;;;;;;5072511;28;19912;-82
2022/09/02 09:00:16;;;;;;;;;;;28.00;85.70;;;;;;5072228;28;19916;-83
2022/09/02 09:02:55;;;;;;;;;;;29.40;79.20;;;;;;5073369;28;19958;-84
2022/09/02 09:05:23;;;;;;;;;;;30.70;71.80;;;;;;5077266;28;20626;-83
2022/09/02 09:07:49;;;;;;;;;;;32.10;67.10;;;;;;5072353;28;19912;-83
2022/09/02 09:10:17;;;;;;;;;;;33.00;59.30;;;;;;5072825;28;20383;-83
2022/09/02 09:12:58;;;;;;;;;;;33.90;56.10;;;;;;5075252;28;19916;-86
2022/09/02 09:15:42;;;;;;;;;;;34.80;52.90;;;;;;5078882;28;19912;-84
2022/09/02 09:18:10;;;;;;;;;;;35.50;49.10;;;;;;5068404;28;19908;-86
2022/09/02 09:20:38;;;;;;;;;;;36.30;48.00;;;;;;5070350;28;19986;-85
2022/09/02 09:23:32;;;;;;;;;;;36.20;43.80;;;;;;5070706;28;19919;-83
2022/09/02 09:26:11;;;;;;;;;;;36.80;44.00;;;;;;5068863;28;19909;-83
2022/09/02 09:28:42;;;;;;;;;;;37.60;42.10;;;;;;5072420;28;19962;-85
2022/09/02 09:31:13;;;;;;;;;;;38.00;40.50;;;;;;5072497;28;19915;-85
2022/09/02 09:33:40;;;;;;;;;;;38.00;38.20;;;;;;5074324;28;19919;-85
2022/09/02 09:36:06;;;;;;;;;;;37.40;38.10;;;;;;5075791;28;19934;-86
2022/09/02 09:38:34;;;;;;;;;;;36.60;38.00;;;;;;5076172;28;19958;-85
2022/09/02 09:41:19;;;;;;;;;;;35.90;38.00;;;;;;5075753;28;19915;-84
2022/09/02 09:43:44;;;;;;;;;;;35.60;39.70;;;;;;5075533;28;20015;-84
2022/09/02 09:46:39;;;;;;;;;;;35.00;40.00;;;;;;5074191;28;19951;-84
2022/09/02 09:49:05;;;;;;;;;;;34.70;39.30;;;;;;5053126;28;19912;-87
2022/09/02 09:51:30;;;;;;;;;;;34.60;39.90;;;;;;5063087;28;19909;-86
2022/09/02 09:54:15;;;;;;;;;;;34.20;40.70;;;;;;5054773;28;20012;-86
2022/09/02 09:56:40;;;;;;;;;;;33.80;40.70;;;;;;5054298;28;19915;-85
2022/09/02 09:59:25;;;;;;;;;;;32.90;40.10;;;;;;5055432;28;19909;-88
2022/09/02 10:01:50;;;;;;;;;;;32.40;41.80;;;;;;5054527;28;19920;-86
2022/09/02 10:04:36;;;;;;;;;;;31.80;42.10;;;;;;5055537;28;19912;-86
2022/09/02 10:07:02;;;;;;;;;;;31.30;41.10;;;;;;5054632;28;19916;-87
2022/09/02 10:09:33;;;;;;;;;;;30.80;43.00;;;;;;5055594;28;19909;-86
2022/09/02 10:12:00;;;;;;;;;;;30.50;42.90;;;;;;5055106;28;19981;-87
2022/09/02 10:14:31;;;;;;;;;;;30.40;43.00;;;;;;5054195;28;19909;-86
2022/09/02 10:17:03;;;;;;;;;;;30.30;43.70;;;;;;5053223;28;19916;-88
2022/09/02 10:19:28;;;;;;;;;;;30.30;43.90;;;;;;5054007;28;20044;-87
2022/09/02 10:22:09;;;;;;;;;;;30.10;43.70;;;;;;5054188;28;19986;-86
2022/09/02 10:24:54;;;;;;;;;;;30.00;42.90;;;;;;5054781;28;19962;-86
2022/09/02 10:27:33;;;;;;;;;;;29.60;42.30;;;;;;5072547;28;19912;-86
2022/09/02 10:30:01;;;;;;;;;;;29.40;42.70;;;;;;5074018;28;19985;-86
2022/09/02 10:32:45;;;;;;;;;;;29.20;43.20;;;;;;5073236;28;19916;-85
2022/09/02 10:35:11;;;;;;;;;;;29.20;44.80;;;;;;5069576;28;20038;-86
2022/09/02 10:37:51;;;;;;;;;;;28.90;44.00;;;;;;5074891;28;19985;-86
2022/09/02 10:40:20;;;;;;;;;;;28.80;43.30;;;;;;5069368;28;19969;-86
2022/09/02 10:42:53;;;;;;;;;;;28.70;43.50;;;;;;5060990;28;20364;-87
2022/09/02 10:45:18;;;;;;;;;;;28.70;44.80;;;;;;5065535;28;19912;-87
2022/09/02 10:47:58;;;;;;;;;;;28.90;44.40;;;;;;5069446;28;19909;-86
2022/09/02 10:50:42;;;;;;;;;;;28.90;43.80;;;;;;5055685;28;20007;-85
2022/09/02 10:53:16;;;;;;;;;;;28.60;43.50;;;;;;5055088;28;19909;-86
2022/09/02 10:56:02;;;;;;;;;;;28.30;43.60;;;;;;5052965;28;19909;-86
2022/09/02 10:58:48;;;;;;;;;;;28.20;45.00;;;;;;5053572;28;19947;-86
2022/09/02 11:01:32;;;;;;;;;;;28.00;44.50;;;;;;5054063;28;20284;-87
2022/09/02 11:04:00;;;;;;;;;;;27.60;43.60;;;;;;5053690;28;19913;-86
2022/09/02 11:06:31;;;;;;;;;;;27.30;44.50;;;;;;5052864;28;19955;-87
2022/09/02 11:08:59;;;;;;;;;;;27.20;45.10;;;;;;5054713;28;19964;-87
2022/09/02 11:11:29;;;;;;;;;;;27.10;44.90;;;;;;5053241;28;19916;-86
2022/09/02 11:14:07;;;;;;;;;;;27.10;44.30;;;;;;5053056;28;19963;-87
2022/09/02 11:16:34;;;;;;;;;;;27.00;46.00;;;;;;5052120;28;19971;-88
2022/09/02 11:19:22;;;;;;;;;;;27.00;46.10;;;;;;5054098;28;19974;-87
2022/09/02 11:21:55;;;;;;;;;;;26.90;44.70;;;;;;5055728;28;19908;-88
2022/09/02 11:24:25;;;;;;;;;;;27.00;45.10;;;;;;5055459;28;20000;-87
2022/09/02 11:26:57;;;;;;;;;;;27.20;44.40;;;;;;5052395;28;19951;-85
2022/09/02 11:29:35;;;;;;;;;;;27.30;43.70;;;;;;5056809;28;19909;-84
2022/09/02 11:32:21;;;;;;;;;;;27.30;43.80;;;;;;5066348;28;19912;-84
2022/09/02 11:34:51;;;;;;;;;;;27.60;46.40;;;;;;5075684;28;19908;-85
2022/09/02 11:37:46;;;;;;;;;;;27.70;43.70;;;;;;5074858;28;19908;-85
2022/09/02 11:40:13;;;;;;;;;;;27.70;43.50;;;;;;5062919;28;19909;-87
2022/09/02 11:42:42;;;;;;;;;;;27.60;44.20;;;;;;5077104;28;19912;-85
2022/09/02 11:45:17;;;;;;;;;;;27.50;42.70;;;;;;5075702;28;19923;-84
2022/09/02 11:47:42;;;;;;;;;;;27.60;44.30;;;;;;5075714;28;19931;-82
2022/09/02 11:50:25;;;;;;;;;;;27.70;42.70;;;;;;5074833;28;20003;-83
2022/09/02 11:53:11;;;;;;;;;;;27.90;42.70;;;;;;5075507;28;19908;-82
2022/09/02 11:55:40;;;;;;;;;;;27.90;42.40;;;;;;5075798;28;19991;-82
2022/09/02 11:58:06;;;;;;;;;;;28.00;41.20;;;;;;5075602;28;19912;-83
2022/09/02 12:00:33;;;;;;;;;;;28.10;42.10;;;;;;5075838;28;19908;-84
2022/09/02 12:03:05;;;;;;;;;;;28.20;43.50;;;;;;5060172;28;20011;-83
2022/09/02 12:05:33;;;;;;;;;;;28.30;44.20;;;;;;5054897;28;19935;-83
2022/09/02 12:08:05;;;;;;;;;;;28.30;43.20;;;;;;5056008;28;20261;-85
2022/09/02 12:10:54;;;;;;;;;;;28.40;43.80;;;;;;5073311;28;19959;-86
2022/09/02 12:13:42;;;;;;;;;;;28.60;43.30;;;;;;5066957;28;19921;-86
2022/09/02 12:16:22;;;;;;;;;;;28.70;42.50;;;;;;5076637;28;19909;-85
2022/09/02 12:18:52;;;;;;;;;;;28.40;41.20;;;;;;5076239;28;19912;-86
2022/09/02 12:21:19;;;;;;;;;;;28.30;42.50;;;;;;5074840;28;19908;-86
2022/09/02 12:23:48;;;;;;;;;;;28.30;41.60;;;;;;5074155;28;20000;-85
2022/09/02 12:26:14;;;;;;;;;;;28.30;42.40;;;;;;5076377;28;19936;-85
2022/09/02 12:28:41;;;;;;;;;;;28.20;42.10;;;;;;5076276;28;19931;-86
2022/09/02 12:31:09;;;;;;;;;;;28.00;41.70;;;;;;5072856;28;19908;-86
2022/09/02 12:33:45;;;;;;;;;;;28.00;41.70;;;;;;5075754;28;20387;-86
2022/09/02 12:36:31;;;;;;;;;;;28.10;41.60;;;;;;5073907;28;19935;-85
2022/09/02 12:39:17;;;;;;;;;;;28.10;41.60;;;;;;5050964;28;19915;-86
2022/09/02 12:41:43;;;;;;;;;;;28.20;43.10;;;;;;5062753;28;20030;-86
2022/09/02 12:44:27;;;;;;;;;;;28.30;41.50;;;;;;5071561;28;19917;-85
2022/09/02 12:46:59;;;;;;;;;;;28.50;42.30;;;;;;5072429;28;19946;-87
2022/09/02 12:49:34;;;;;;;;;;;28.70;42.60;;;;;;5071645;28;19909;-85
2022/09/02 12:52:01;;;;;;;;;;;28.80;42.30;;;;;;5071894;28;19912;-86
2022/09/02 12:54:29;;;;;;;;;;;28.80;42.10;;;;;;5073699;28;19975;-84
2022/09/02 12:56:55;;;;;;;;;;;28.90;41.70;;;;;;5072175;28;19971;-86
2022/09/02 12:59:28;;;;;;;;;;;29.00;42.20;;;;;;5073677;28;19909;-85
2022/09/02 13:02:04;;;;;;;;;;;29.00;41.90;;;;;;5072715;28;19916;-86
2022/09/02 13:04:42;;;;;;;;;;;28.90;40.40;;;;;;5071067;28;19913;-85
2022/09/02 13:07:20;;;;;;;;;;;28.90;42.00;;;;;;5070583;28;19931;-86
2022/09/02 13:10:14;;;;;;;;;;;28.90;41.80;;;;;;5075197;28;20026;-86
2022/09/02 13:12:52;;;;;;;;;;;28.90;40.80;;;;;;5075931;28;20302;-87
2022/09/02 13:15:22;;;;;;;;;;;28.90;41.10;;;;;;5074632;28;19908;-84
2022/09/02 13:17:54;;;;;;;;;;;28.90;40.70;;;;;;5074134;28;19935;-85
2022/09/02 13:20:42;;;;;;;;;;;28.90;40.80;;;;;;5074573;28;19934;-85
2022/09/02 13:23:08;;;;;;;;;;;28.90;41.50;;;;;;5074598;28;19962;-87
2022/09/02 13:25:44;;;;;;;;;;;28.90;41.90;;;;;;5074351;28;20627;-88
2022/09/02 13:28:34;;;;;;;;;;;28.80;41.70;;;;;;5075516;28;19909;-86
2022/09/02 13:31:04;;;;;;;;;;;28.80;41.30;;;;;;5054253;28;19916;-84
2022/09/02 13:33:30;;;;;;;;;;;28.80;41.70;;;;;;5055785;28;19916;-86
2022/09/02 13:35:58;;;;;;;;;;;28.80;42.20;;;;;;5053718;28;20011;-84
2022/09/02 13:38:24;;;;;;;;;;;28.90;41.10;;;;;;5055900;28;19915;-86
2022/09/02 13:40:50;;;;;;;;;;;29.10;40.40;;;;;;5054029;28;20007;-85
2022/09/02 13:43:17;;;;;;;;;;;29.10;41.20;;;;;;5055587;28;20376;-85
2022/09/02 13:45:43;;;;;;;;;;;29.10;41.00;;;;;;5053672;28;20012;-88
2022/09/02 13:48:13;;;;;;;;;;;29.20;40.90;;;;;;5053842;28;19921;-85
2022/09/02 13:50:42;;;;;;;;;;;29.10;40.30;;;;;;5053882;28;19912;-87
2022/09/02 13:53:09;;;;;;;;;;;29.10;40.40;;;;;;5054121;28;19915;-85
2022/09/02 13:55:47;;;;;;;;;;;29.20;42.50;;;;;;5053424;28;19909;-86
2022/09/02 13:58:21;;;;;;;;;;;29.10;41.20;;;;;;5055319;28;19909;-86
2022/09/02 14:00:47;;;;;;;;;;;29.10;39.80;;;;;;5054034;28;19913;-85
2022/09/02 14:03:15;;;;;;;;;;;29.10;40.20;;;;;;5053762;28;19913;-84
2022/09/02 14:05:43;;;;;;;;;;;29.20;41.50;;;;;;5054527;28;19916;-85
2022/09/02 14:08:14;;;;;;;;;;;29.20;40.90;;;;;;5053926;28;19913;-85
2022/09/02 14:10:41;;;;;;;;;;;29.20;40.60;;;;;;5054440;28;20288;-85
2022/09/02 14:13:07;;;;;;;;;;;29.40;41.80;;;;;;5054060;28;19916;-84
2022/09/02 14:15:33;;;;;;;;;;;29.50;40.30;;;;;;5054049;28;19994;-84
2022/09/02 14:18:08;;;;;;;;;;;29.70;40.10;;;;;;5055354;28;19913;-84
2022/09/02 14:20:35;;;;;;;;;;;29.90;39.70;;;;;;5053639;28;19909;-86
2022/09/02 14:23:01;;;;;;;;;;;30.10;41.50;;;;;;5054437;28;19955;-86
2022/09/02 14:25:28;;;;;;;;;;;30.10;39.60;;;;;;5054602;28;20288;-83
2022/09/02 14:27:55;;;;;;;;;;;30.00;39.50;;;;;;5055252;28;19909;-84
2022/09/02 14:30:40;;;;;;;;;;;30.10;41.30;;;;;;5055790;28;19944;-85
2022/09/02 14:33:35;;;;;;;;;;;30.60;39.20;;;;;;5055417;28;19959;-85